createdAt,value
2022-12-05T00:00:42.633Z,20.58
2022-12-05T00:02:14.316Z,19.63
2022-12-05T00:03:46.086Z,19.20
2022-12-05T00:05:17.982Z,21.17
2022-12-05T00:06:49.590Z,20.08
2022-12-05T00:08:21.293Z,21.63
2022-12-05T00:09:54.558Z,21.30
2022-12-05T00:11:27.729Z,22.13
2022-12-05T00:12:59.348Z,23.05
2022-12-05T00:14:30.977Z,21.70
2022-12-05T00:16:02.586Z,22.55
2022-12-05T00:17:34.222Z,20.33
2022-12-05T00:19:06.619Z,22.25
2022-12-05T00:20:44.093Z,21.48
2022-12-05T00:22:15.805Z,19.88
2022-12-05T00:23:47.567Z,20.63
2022-12-05T00:25:20.674Z,20.27
2022-12-05T00:26:52.285Z,19.90
2022-12-05T00:28:23.935Z,20.60
2022-12-05T00:29:55.903Z,20.08
2022-12-05T00:31:28.154Z,24.55
2022-12-05T00:32:59.814Z,23.23
2022-12-05T00:34:31.431Z,25.73
2022-12-05T00:36:03.433Z,25.45
2022-12-05T00:37:35.096Z,18.77
2022-12-05T00:39:08.053Z,22.90
2022-12-05T00:40:41.051Z,23.40
2022-12-05T00:42:12.697Z,25.35
2022-12-05T00:43:44.829Z,27.92
2022-12-05T00:45:16.619Z,27.33
2022-12-05T00:46:48.389Z,28.00
2022-12-05T00:48:20.045Z,29.38
2022-12-05T00:49:51.701Z,32.25
2022-12-05T00:51:24.156Z,27.33
2022-12-05T00:52:55.829Z,26.58
2022-12-05T00:54:27.446Z,28.15
2022-12-05T00:56:03.639Z,29.30
2022-12-05T00:57:35.305Z,30.00
2022-12-05T00:59:07.055Z,32.08
2022-12-05T01:00:38.661Z,33.08
2022-12-05T01:02:10.327Z,32.00
2022-12-05T01:03:42.309Z,35.22
2022-12-05T01:05:13.991Z,36.85
2022-12-05T01:06:45.823Z,33.78
2022-12-05T01:08:17.504Z,31.92
2022-12-05T01:09:49.195Z,32.83
2022-12-05T01:11:23.161Z,31.58
2022-12-05T01:12:54.807Z,33.33
2022-12-05T01:14:26.645Z,32.97
2022-12-05T01:15:58.287Z,32.22
2022-12-05T01:17:29.906Z,35.63
2022-12-05T01:19:02.431Z,30.80
2022-12-05T01:20:34.037Z,34.92
2022-12-05T01:22:05.644Z,29.63
2022-12-05T01:23:37.320Z,31.85
2022-12-05T01:25:09.428Z,28.30
2022-12-05T01:26:42.499Z,33.40
2022-12-05T01:28:14.598Z,27.63
2022-12-05T01:29:46.286Z,36.72
2022-12-05T01:31:22.359Z,30.90
2022-12-05T01:32:54.202Z,31.15
2022-12-05T01:34:26.020Z,30.05
2022-12-05T01:35:57.873Z,26.02
2022-12-05T01:37:29.582Z,27.92
2022-12-05T01:39:01.305Z,32.63
2022-12-05T01:40:33.419Z,29.35
2022-12-05T01:42:06.930Z,26.00
2022-12-05T01:43:53.646Z,30.95
2022-12-05T01:45:32.689Z,26.60
2022-12-05T01:47:04.434Z,26.33
2022-12-05T01:48:36.336Z,23.75
2022-12-05T01:50:08.967Z,25.40
2022-12-05T01:51:41.796Z,27.52
2022-12-05T01:53:13.398Z,26.20
2022-12-05T01:54:44.992Z,24.48
2022-12-05T01:56:16.640Z,27.85
2022-12-05T01:57:49.571Z,23.55
2022-12-05T01:59:21.244Z,24.52
2022-12-05T02:00:52.935Z,26.05
2022-12-05T02:02:24.728Z,22.25
2022-12-05T02:03:57.391Z,27.05
2022-12-05T02:05:30.044Z,23.23
2022-12-05T02:07:01.694Z,25.65
2022-12-05T02:08:33.305Z,26.33
2022-12-05T02:10:06.373Z,23.05
2022-12-05T02:11:41.846Z,23.85
2022-12-05T02:13:26.814Z,26.08
2022-12-05T02:15:26.284Z,22.35
2022-12-05T02:16:59.450Z,26.27
2022-12-05T02:18:39.948Z,26.52
2022-12-05T02:20:19.285Z,25.60
2022-12-05T02:22:01.087Z,23.73
2022-12-05T02:23:48.868Z,23.35
2022-12-05T02:25:28.911Z,26.13
2022-12-05T02:27:06.661Z,24.63
2022-12-05T02:29:22.946Z,25.00
2022-12-05T02:30:56.771Z,23.75
2022-12-05T02:32:35.596Z,24.27
2022-12-05T02:34:10.562Z,23.92
2022-12-05T02:35:46.934Z,25.02
2022-12-05T02:37:22.032Z,24.15
2022-12-05T02:38:57.303Z,23.13
2022-12-05T02:40:31.095Z,22.77
2022-12-05T02:42:05.033Z,23.35
2022-12-05T02:43:37.714Z,24.37
2022-12-05T02:45:10.382Z,25.92
2022-12-05T02:46:44.577Z,25.00
2022-12-05T02:48:16.211Z,25.30
2022-12-05T02:49:47.844Z,21.08
2022-12-05T02:51:21.118Z,25.55
2022-12-05T02:52:53.727Z,24.25
2022-12-05T02:54:26.398Z,21.95
2022-12-05T02:55:58.054Z,22.10
2022-12-05T02:57:29.670Z,23.98
2022-12-05T02:59:01.321Z,22.55
2022-12-05T03:00:34.229Z,23.23
2022-12-05T03:02:08.150Z,27.25
2022-12-05T03:03:39.751Z,25.58
2022-12-05T03:05:17.235Z,22.23
2022-12-05T03:06:49.690Z,23.10
2022-12-05T03:08:22.286Z,28.48
2022-12-05T03:09:56.114Z,22.95
2022-12-05T03:11:28.042Z,26.33
2022-12-05T03:13:02.912Z,22.98
2022-12-05T03:14:37.475Z,19.95
2022-12-05T03:16:12.382Z,21.48
2022-12-05T03:17:47.165Z,22.90
2022-12-05T03:19:21.019Z,21.75
2022-12-05T03:20:54.804Z,22.88
2022-12-05T03:22:30.043Z,20.35
2022-12-05T03:24:03.587Z,22.73
2022-12-05T03:25:36.627Z,22.80
2022-12-05T03:27:09.893Z,25.10
2022-12-05T03:28:48.976Z,23.00
2022-12-05T03:30:21.517Z,20.20
2022-12-05T03:31:57.367Z,20.42
2022-12-05T03:33:32.000Z,21.88
2022-12-05T03:35:06.867Z,24.90
2022-12-05T03:36:39.917Z,23.75
2022-12-05T03:38:12.856Z,22.80
2022-12-05T03:39:45.880Z,25.83
2022-12-05T03:41:25.824Z,22.40
2022-12-05T03:43:02.687Z,25.15
2022-12-05T03:44:35.550Z,27.30
2022-12-05T03:46:09.422Z,26.55
2022-12-05T03:47:44.784Z,26.73
2022-12-05T03:49:20.735Z,23.48
2022-12-05T03:50:53.802Z,23.08
2022-12-05T03:52:27.430Z,24.50
2022-12-05T03:54:00.510Z,20.42
2022-12-05T03:55:33.146Z,22.73
2022-12-05T03:57:06.268Z,27.75
2022-12-05T03:58:39.955Z,25.40
2022-12-05T04:00:12.859Z,25.50
2022-12-05T04:01:44.562Z,26.13
2022-12-05T04:03:19.367Z,28.13
2022-12-05T04:04:54.763Z,24.25
2022-12-05T04:06:28.603Z,25.30
2022-12-05T04:08:01.389Z,26.40
2022-12-05T04:09:35.130Z,24.42
2022-12-05T04:11:07.703Z,24.80
2022-12-05T04:12:39.340Z,26.17
2022-12-05T04:14:11.808Z,24.63
2022-12-05T04:16:04.008Z,31.75
2022-12-05T04:17:37.949Z,23.90
2022-12-05T04:19:11.792Z,22.17
2022-12-05T04:21:03.122Z,19.67
2022-12-05T04:22:34.767Z,29.58
2022-12-05T04:24:25.732Z,26.55
2022-12-05T04:26:00.388Z,32.75
2022-12-05T04:27:36.004Z,33.05
2022-12-05T04:29:08.719Z,34.65
2022-12-05T04:30:42.137Z,24.63
2022-12-05T04:32:14.348Z,29.27
2022-12-05T04:33:47.023Z,28.30
2022-12-05T04:35:20.570Z,24.50
2022-12-05T04:36:55.935Z,30.92
2022-12-05T04:38:30.047Z,29.70
2022-12-05T04:40:03.814Z,27.92
2022-12-05T04:41:37.241Z,24.75
2022-12-05T04:43:08.839Z,27.45
2022-12-05T04:44:42.138Z,28.65
2022-12-05T04:46:14.545Z,23.95
2022-12-05T04:47:48.557Z,23.98
2022-12-05T04:49:21.670Z,28.08
2022-12-05T04:50:53.916Z,21.95
2022-12-05T04:52:28.172Z,23.45
2022-12-05T04:54:02.114Z,21.70
2022-12-05T04:55:34.923Z,25.85
2022-12-05T04:57:08.196Z,33.55
2022-12-05T04:58:39.801Z,24.92
2022-12-05T05:00:12.545Z,26.17
2022-12-05T05:01:45.488Z,29.02
2022-12-05T05:03:18.803Z,29.50
2022-12-05T05:04:52.254Z,23.58
2022-12-05T05:06:23.858Z,24.90
2022-12-05T05:07:56.932Z,21.83
2022-12-05T05:09:28.668Z,26.70
2022-12-05T05:11:09.664Z,28.30
2022-12-05T05:12:41.266Z,26.92
2022-12-05T05:14:12.874Z,25.08
2022-12-05T05:15:44.520Z,25.02
2022-12-05T05:17:16.179Z,29.17
2022-12-05T05:18:48.061Z,33.38
2022-12-05T05:20:25.528Z,28.00
2022-12-05T05:21:57.416Z,31.15
2022-12-05T05:23:30.447Z,30.55
2022-12-05T05:25:02.117Z,32.92
2022-12-05T05:26:34.535Z,28.52
2022-12-05T05:28:06.206Z,25.65
2022-12-05T05:29:37.936Z,26.17
2022-12-05T05:31:09.753Z,22.83
2022-12-05T05:32:41.501Z,21.73
2022-12-05T05:34:15.860Z,27.33
2022-12-05T05:35:47.488Z,26.45
2022-12-05T05:37:19.130Z,31.60
2022-12-05T05:38:52.884Z,22.27
2022-12-05T05:40:24.543Z,28.40
2022-12-05T05:41:56.226Z,24.42
2022-12-05T05:43:27.874Z,26.92
2022-12-05T05:44:59.515Z,22.05
2022-12-05T05:46:33.398Z,26.10
2022-12-05T05:48:05.544Z,25.58
2022-12-05T05:49:37.160Z,28.63
2022-12-05T05:51:10.075Z,23.15
2022-12-05T05:52:41.706Z,24.67
2022-12-05T05:54:14.723Z,26.48
2022-12-05T05:55:46.376Z,27.75
2022-12-05T05:57:20.531Z,31.30
2022-12-05T05:58:56.040Z,27.23
2022-12-05T06:00:27.672Z,22.85
2022-12-05T06:01:59.710Z,23.85
2022-12-05T06:03:31.479Z,28.98
2022-12-05T06:05:03.494Z,28.02
2022-12-05T06:06:35.137Z,24.65
2022-12-05T06:08:06.887Z,25.48
2022-12-05T06:09:40.144Z,25.58
2022-12-05T06:11:12.551Z,27.85
2022-12-05T06:12:44.193Z,27.17
2022-12-05T06:14:15.877Z,25.45
2022-12-05T06:15:47.538Z,28.38
2022-12-05T06:17:19.168Z,29.13
2022-12-05T06:18:51.478Z,27.55
2022-12-05T06:20:23.095Z,32.50
2022-12-05T06:21:54.693Z,30.08
2022-12-05T06:23:26.454Z,27.45
2022-12-05T06:24:59.856Z,22.20
2022-12-05T06:26:31.671Z,25.48
2022-12-05T06:28:05.850Z,24.17
2022-12-05T06:29:37.530Z,26.45
2022-12-05T06:31:10.834Z,27.20
2022-12-05T06:32:42.566Z,24.75
2022-12-05T06:34:14.244Z,25.40
2022-12-05T06:35:46.387Z,27.55
2022-12-05T06:37:18.055Z,27.40
2022-12-05T06:38:49.680Z,26.02
2022-12-05T06:40:22.949Z,23.58
2022-12-05T06:41:54.578Z,29.55
2022-12-05T06:43:26.244Z,26.42
2022-12-05T06:44:57.897Z,31.15
2022-12-05T06:46:29.640Z,26.00
2022-12-05T06:48:01.398Z,32.60
2022-12-05T06:49:37.704Z,29.90
2022-12-05T06:51:09.974Z,25.42
2022-12-05T06:52:41.586Z,23.13
2022-12-05T06:54:13.327Z,24.38
2022-12-05T06:55:55.389Z,28.55
2022-12-05T06:57:28.367Z,30.63
2022-12-05T06:59:00.141Z,28.55
2022-12-05T07:00:50.601Z,28.02
2022-12-05T07:02:22.333Z,30.45
2022-12-05T07:03:54.017Z,28.42
2022-12-05T07:05:25.670Z,29.05
2022-12-05T07:06:57.669Z,23.88
2022-12-05T07:08:29.313Z,25.50
2022-12-05T07:10:01.026Z,25.73
2022-12-05T07:11:34.308Z,29.75
2022-12-05T07:13:06.056Z,31.92
2022-12-05T07:14:47.558Z,33.15
2022-12-05T07:16:20.112Z,30.00
2022-12-05T07:17:51.791Z,28.83
2022-12-05T07:19:23.487Z,21.75
2022-12-05T07:21:14.271Z,21.15
2022-12-05T07:22:46.252Z,16.20
2022-12-05T07:24:17.858Z,16.30
2022-12-05T07:25:49.482Z,13.55
2022-12-05T07:27:27.173Z,12.68
2022-12-05T07:28:59.502Z,14.30
2022-12-05T07:30:31.163Z,11.25
2022-12-05T07:32:03.012Z,13.75
2022-12-05T07:33:34.910Z,15.07
2022-12-05T07:35:07.066Z,13.60
2022-12-05T07:36:38.690Z,12.65
2022-12-05T07:38:10.340Z,11.70
2022-12-05T07:39:41.975Z,9.50
2022-12-05T07:41:15.089Z,11.25
2022-12-05T07:42:49.331Z,10.65
2022-12-05T07:44:20.954Z,10.93
2022-12-05T07:45:52.728Z,10.60
2022-12-05T07:47:24.534Z,9.77
2022-12-05T07:48:56.256Z,9.82
2022-12-05T07:50:27.880Z,8.77
2022-12-05T07:51:59.509Z,10.02
2022-12-05T07:53:31.318Z,9.75
2022-12-05T07:55:02.948Z,8.65
2022-12-05T07:56:34.641Z,9.40
2022-12-05T07:58:07.676Z,9.43
2022-12-05T07:59:39.308Z,9.23
2022-12-05T08:01:12.117Z,7.20
2022-12-05T08:02:43.842Z,7.32
2022-12-05T08:04:16.105Z,8.23
2022-12-05T08:05:47.760Z,7.88
2022-12-05T08:07:19.381Z,7.53
2022-12-05T08:08:51.313Z,6.38
2022-12-05T08:10:22.970Z,6.20
2022-12-05T08:11:54.612Z,7.82
2022-12-05T08:13:27.604Z,5.68
2022-12-05T08:14:59.232Z,6.43
2022-12-05T08:16:31.247Z,5.07
2022-12-05T08:18:03.022Z,5.65
2022-12-05T08:19:34.669Z,5.35
2022-12-05T08:21:07.683Z,4.10
2022-12-05T08:22:39.378Z,7.63
2022-12-05T08:24:11.067Z,6.07
2022-12-05T08:25:43.264Z,5.28
2022-12-05T08:27:14.961Z,4.90
2022-12-05T08:28:50.608Z,4.80
2022-12-05T08:30:22.250Z,5.22
2022-12-05T08:31:54.132Z,4.80
2022-12-05T08:33:25.782Z,4.20
2022-12-05T08:34:57.421Z,5.10
2022-12-05T08:36:29.416Z,4.43
2022-12-05T08:38:01.057Z,3.85
2022-12-05T08:39:38.214Z,4.47
2022-12-05T08:41:11.983Z,4.18
2022-12-05T08:42:47.073Z,5.03
2022-12-05T08:44:20.087Z,4.88
2022-12-05T08:45:51.859Z,4.70
2022-12-05T08:47:23.545Z,4.82
2022-12-05T08:48:55.371Z,3.95
2022-12-05T08:50:27.019Z,3.65
2022-12-05T08:51:58.719Z,4.50
2022-12-05T08:53:30.355Z,4.50
2022-12-05T08:55:02.027Z,3.75
2022-12-05T08:56:33.919Z,5.28
2022-12-05T08:58:05.570Z,3.85
2022-12-05T08:59:38.587Z,4.70
2022-12-05T09:01:12.073Z,5.57
2022-12-05T09:02:43.959Z,4.10
2022-12-05T09:04:15.682Z,4.22
2022-12-05T09:05:47.296Z,4.45
2022-12-05T09:07:18.917Z,3.95
2022-12-05T09:08:56.467Z,3.33
2022-12-05T09:10:28.134Z,4.72
2022-12-05T09:12:00.347Z,4.28
2022-12-05T09:13:32.042Z,4.47
2022-12-05T09:15:06.690Z,3.40
2022-12-05T09:16:39.409Z,4.70
2022-12-05T09:18:12.677Z,4.72
2022-12-05T09:19:45.119Z,4.38
2022-12-05T09:21:17.915Z,4.95
2022-12-05T09:22:49.594Z,5.38
2022-12-05T09:24:21.367Z,3.85
2022-12-05T09:25:53.625Z,4.10
2022-12-05T09:27:25.247Z,4.80
2022-12-05T09:28:56.987Z,4.18
2022-12-05T09:30:29.942Z,4.18
2022-12-05T09:32:01.553Z,4.18
2022-12-05T09:33:34.896Z,5.93
2022-12-05T09:35:07.070Z,3.80
2022-12-05T09:36:38.729Z,3.40
2022-12-05T09:38:10.352Z,4.03
2022-12-05T09:39:43.342Z,3.45
2022-12-05T09:41:43.089Z,4.15
2022-12-05T09:43:19.016Z,5.65
2022-12-05T09:45:05.048Z,4.25
2022-12-05T09:46:42.726Z,4.43
2022-12-05T09:48:15.067Z,4.30
2022-12-05T09:49:48.152Z,4.32
2022-12-05T09:51:19.831Z,4.60
2022-12-05T09:53:02.462Z,4.28
2022-12-05T09:54:34.118Z,3.42
2022-12-05T09:56:06.416Z,6.03
2022-12-05T09:57:40.029Z,5.78
2022-12-05T09:59:13.345Z,7.70
2022-12-05T10:00:44.997Z,7.45
2022-12-05T10:02:23.184Z,6.30
2022-12-05T10:04:08.008Z,8.15
2022-12-05T10:05:41.594Z,5.03
2022-12-05T10:07:15.871Z,6.88
2022-12-05T10:09:00.194Z,4.13
2022-12-05T10:10:35.049Z,6.78
2022-12-05T10:12:11.593Z,4.30
2022-12-05T10:13:48.031Z,4.50
2022-12-05T10:15:23.250Z,3.47
2022-12-05T10:16:55.673Z,4.20
2022-12-05T10:18:33.949Z,4.20
2022-12-05T10:20:09.498Z,3.30
2022-12-05T10:21:44.904Z,3.20
2022-12-05T10:23:41.215Z,4.00
2022-12-05T10:25:09.841Z,3.67
2022-12-05T10:26:47.439Z,5.90
2022-12-05T10:28:26.041Z,4.20
2022-12-05T10:29:58.515Z,2.85
2022-12-05T10:31:32.499Z,2.70
2022-12-05T10:33:09.532Z,2.60
2022-12-05T10:34:43.346Z,2.50
2022-12-05T10:36:15.540Z,2.60
2022-12-05T10:37:48.621Z,3.00
2022-12-05T10:39:20.280Z,2.53
2022-12-05T10:40:53.043Z,2.70
2022-12-05T10:42:29.123Z,3.17
2022-12-05T10:44:05.219Z,3.13
2022-12-05T10:45:37.347Z,2.80
2022-12-05T10:47:09.092Z,2.70
2022-12-05T10:48:41.255Z,2.90
2022-12-05T10:50:25.928Z,3.33
2022-12-05T10:51:57.588Z,3.47
2022-12-05T10:53:31.893Z,2.72
2022-12-05T10:55:05.255Z,4.03
2022-12-05T10:56:38.377Z,3.35
2022-12-05T10:58:17.099Z,3.25
2022-12-05T10:59:49.510Z,3.40
2022-12-05T11:01:21.708Z,2.70
2022-12-05T11:02:54.028Z,2.80
2022-12-05T11:04:28.169Z,4.35
2022-12-05T11:06:01.913Z,6.32
2022-12-05T11:07:34.281Z,5.25
2022-12-05T11:09:13.237Z,4.25
2022-12-05T11:10:44.928Z,3.15
2022-12-05T11:12:21.117Z,3.08
2022-12-05T11:13:53.613Z,3.58
2022-12-05T11:15:26.254Z,2.40
2022-12-05T11:16:59.142Z,3.10
2022-12-05T11:18:32.060Z,3.40
2022-12-05T11:20:12.771Z,3.90
2022-12-05T11:21:45.776Z,3.60
2022-12-05T11:23:25.159Z,4.63
2022-12-05T11:24:57.108Z,4.18
2022-12-05T11:26:34.668Z,5.55
2022-12-05T11:28:34.152Z,9.18
2022-12-05T11:30:18.936Z,7.22
2022-12-05T11:31:51.016Z,7.30
2022-12-05T11:33:23.482Z,6.18
2022-12-05T11:34:58.760Z,4.97
2022-12-05T11:36:36.712Z,4.88
2022-12-05T11:38:10.880Z,5.15
2022-12-05T11:39:42.527Z,3.88
2022-12-05T11:41:27.617Z,2.63
2022-12-05T11:43:22.243Z,2.72
2022-12-05T11:45:17.540Z,2.65
2022-12-05T11:46:55.663Z,2.60
2022-12-05T11:48:44.391Z,2.70
2022-12-05T11:50:32.885Z,2.55
2022-12-05T11:52:08.686Z,2.47
2022-12-05T11:54:03.395Z,2.42
2022-12-05T11:55:37.346Z,2.75
2022-12-05T11:57:11.491Z,2.28
2022-12-05T11:58:53.936Z,2.40
2022-12-05T12:00:26.898Z,2.38
2022-12-05T12:02:01.450Z,2.00
2022-12-05T12:04:00.267Z,2.42
2022-12-05T12:05:33.995Z,2.47
2022-12-05T12:07:14.624Z,3.13
2022-12-05T12:08:52.216Z,3.25
2022-12-05T12:10:28.207Z,3.35
2022-12-05T12:12:02.800Z,2.95
2022-12-05T12:13:42.308Z,3.10
2022-12-05T12:15:24.397Z,4.75
2022-12-05T12:17:02.183Z,4.03
2022-12-05T12:18:44.592Z,3.75
2022-12-05T12:20:27.200Z,4.40
2022-12-05T12:22:19.991Z,6.00
2022-12-05T12:24:05.805Z,3.30
2022-12-05T12:25:42.935Z,2.78
2022-12-05T12:27:17.477Z,3.00
2022-12-05T12:29:02.943Z,3.97
2022-12-05T12:30:41.927Z,4.90
2022-12-05T12:32:20.198Z,4.18
2022-12-05T12:33:54.817Z,4.50
2022-12-05T12:35:33.148Z,3.92
2022-12-05T12:37:09.623Z,4.30
2022-12-05T12:38:52.403Z,4.72
2022-12-05T12:40:27.827Z,4.38
2022-12-05T12:42:08.682Z,4.78
2022-12-05T12:43:54.474Z,4.30
2022-12-05T12:45:56.125Z,4.22
2022-12-05T12:47:32.540Z,4.00
2022-12-05T12:49:15.504Z,4.05
2022-12-05T12:50:49.672Z,3.70
2022-12-05T12:52:23.403Z,3.83
2022-12-05T12:54:11.825Z,7.90
2022-12-05T12:55:46.124Z,6.60
2022-12-05T12:57:24.084Z,4.00
2022-12-05T12:58:59.174Z,3.80
2022-12-05T13:00:36.022Z,2.65
2022-12-05T13:02:12.983Z,3.08
2022-12-05T13:03:51.428Z,2.88
2022-12-05T13:05:26.193Z,2.80
2022-12-05T13:06:59.753Z,2.40
2022-12-05T13:08:34.031Z,1.95
2022-12-05T13:10:07.199Z,2.10
2022-12-05T13:11:40.374Z,2.08
2022-12-05T13:13:14.396Z,2.20
2022-12-05T13:14:49.177Z,2.60
2022-12-05T13:16:23.927Z,2.80
2022-12-05T13:17:55.557Z,3.72
2022-12-05T13:19:28.842Z,3.15
2022-12-05T13:21:02.578Z,4.05
2022-12-05T13:22:34.215Z,3.25
2022-12-05T13:24:06.415Z,2.70
2022-12-05T13:25:40.830Z,2.88
2022-12-05T13:27:15.645Z,2.63
2022-12-05T13:28:53.390Z,2.15
2022-12-05T13:30:28.135Z,2.95
2022-12-05T13:32:00.558Z,3.05
2022-12-05T13:33:34.292Z,3.70
2022-12-05T13:35:09.662Z,3.45
2022-12-05T13:36:59.723Z,4.28
2022-12-05T13:38:51.809Z,3.63
2022-12-05T13:40:46.858Z,3.72
2022-12-05T13:42:21.327Z,4.65
2022-12-05T13:44:05.893Z,4.75
2022-12-05T13:45:38.373Z,6.60
2022-12-05T13:47:22.240Z,7.03
2022-12-05T13:49:01.390Z,6.53
2022-12-05T13:50:36.489Z,5.63
2022-12-05T13:52:09.789Z,5.55
2022-12-05T13:53:42.422Z,6.28
2022-12-05T13:55:20.245Z,8.93
2022-12-05T13:56:52.941Z,9.05
2022-12-05T13:58:41.329Z,9.38
2022-12-05T14:00:31.738Z,8.13
2022-12-05T14:02:26.602Z,7.18
2022-12-05T14:03:59.027Z,6.90
2022-12-05T14:05:47.467Z,4.82
2022-12-05T14:07:41.800Z,5.38
2022-12-05T14:09:28.208Z,10.82
2022-12-05T14:11:10.551Z,17.77
2022-12-05T14:12:53.966Z,14.05
2022-12-05T14:14:58.750Z,10.18
2022-12-05T14:16:50.061Z,7.40
2022-12-05T14:18:23.596Z,9.40
2022-12-05T14:20:05.113Z,7.47
2022-12-05T14:21:38.695Z,8.07
2022-12-05T14:23:17.577Z,8.23
2022-12-05T14:24:52.743Z,6.88
2022-12-05T14:26:35.038Z,6.18
2022-12-05T14:28:18.065Z,4.57
2022-12-05T14:29:57.421Z,3.70
2022-12-05T14:31:39.105Z,4.78
2022-12-05T14:33:16.161Z,5.03
2022-12-05T14:34:52.967Z,5.20
2022-12-05T14:36:30.840Z,7.78
2022-12-05T14:38:03.487Z,8.25
2022-12-05T14:39:39.946Z,5.38
2022-12-05T14:41:13.155Z,8.88
2022-12-05T14:42:51.959Z,7.90
2022-12-05T14:44:24.581Z,7.28
2022-12-05T14:45:58.691Z,19.25
2022-12-05T14:47:31.888Z,6.20
2022-12-05T14:49:37.710Z,8.68
2022-12-05T14:51:43.783Z,7.72
2022-12-05T14:53:37.523Z,5.40
2022-12-05T14:55:12.188Z,6.72
2022-12-05T14:56:44.694Z,4.80
2022-12-05T14:58:17.756Z,6.07
2022-12-05T14:59:51.524Z,4.40
2022-12-05T15:01:24.189Z,5.82
2022-12-05T15:02:56.048Z,5.65
2022-12-05T15:04:32.452Z,5.75
2022-12-05T15:06:06.391Z,5.80
2022-12-05T15:07:38.661Z,8.27
2022-12-05T15:09:36.506Z,7.57
2022-12-05T15:11:11.271Z,7.65
2022-12-05T15:12:45.116Z,13.55
2022-12-05T15:14:19.315Z,9.90
2022-12-05T15:15:55.100Z,26.90
2022-12-05T15:17:29.883Z,29.77
2022-12-05T15:19:04.122Z,19.35
2022-12-05T15:20:40.890Z,16.30
2022-12-05T15:22:14.943Z,12.85
2022-12-05T15:23:47.761Z,12.32
2022-12-05T15:25:24.135Z,13.25
2022-12-05T15:26:56.378Z,10.35
2022-12-05T15:28:28.015Z,8.25
2022-12-05T15:29:59.697Z,8.98
2022-12-05T15:31:32.702Z,7.07
2022-12-05T15:33:04.450Z,8.55
2022-12-05T15:34:37.339Z,10.73
2022-12-05T15:36:08.994Z,9.40
2022-12-05T15:37:47.801Z,6.57
2022-12-05T15:39:23.949Z,6.95
2022-12-05T15:40:55.697Z,7.95
2022-12-05T15:42:30.135Z,11.50
2022-12-05T15:44:02.169Z,9.38
2022-12-05T15:45:33.818Z,11.02
2022-12-05T15:47:05.451Z,10.85
2022-12-05T15:48:37.174Z,11.88
2022-12-05T15:50:12.959Z,10.38
2022-12-05T15:51:44.572Z,11.73
2022-12-05T15:53:18.140Z,8.82
2022-12-05T15:54:49.745Z,10.38
2022-12-05T15:56:22.444Z,9.82
2022-12-05T15:57:56.115Z,7.35
2022-12-05T15:59:29.076Z,7.40
2022-12-05T16:01:01.697Z,5.90
2022-12-05T16:02:36.967Z,5.45
2022-12-05T16:04:14.491Z,6.53
2022-12-05T16:05:47.850Z,6.05
2022-12-05T16:07:19.578Z,5.60
2022-12-05T16:08:52.693Z,5.75
2022-12-05T16:10:29.284Z,5.30
2022-12-05T16:12:01.898Z,4.85
2022-12-05T16:13:33.590Z,5.28
2022-12-05T16:15:08.535Z,6.43
2022-12-05T16:16:42.969Z,5.97
2022-12-05T16:18:26.737Z,5.18
2022-12-05T16:20:20.570Z,5.50
2022-12-05T16:22:00.082Z,5.60
2022-12-05T16:23:32.742Z,5.68
2022-12-05T16:25:12.875Z,11.30
2022-12-05T16:26:44.489Z,8.80
2022-12-05T16:28:17.205Z,7.25
2022-12-05T16:30:06.438Z,6.75
2022-12-05T16:31:39.016Z,6.03
2022-12-05T16:33:13.422Z,6.72
2022-12-05T16:34:45.539Z,6.72
2022-12-05T16:36:17.217Z,6.95
2022-12-05T16:37:48.883Z,7.30
2022-12-05T16:39:20.745Z,7.82
2022-12-05T16:41:00.314Z,6.90
2022-12-05T16:42:34.559Z,6.85
2022-12-05T16:45:04.940Z,6.57
2022-12-05T16:46:44.217Z,6.35
2022-12-05T16:48:21.354Z,6.45
2022-12-05T16:49:52.989Z,5.85
2022-12-05T16:51:28.674Z,6.82
2022-12-05T16:53:01.928Z,6.10
2022-12-05T16:54:33.601Z,5.75
2022-12-05T16:56:09.541Z,8.23
2022-12-05T16:57:41.343Z,6.20
2022-12-05T16:59:16.687Z,6.13
2022-12-05T17:00:48.489Z,6.80
2022-12-05T17:02:20.407Z,9.00
2022-12-05T17:03:53.474Z,7.78
2022-12-05T17:05:28.526Z,7.22
2022-12-05T17:07:00.167Z,7.03
2022-12-05T17:08:34.585Z,7.75
2022-12-05T17:10:07.787Z,6.70
2022-12-05T17:11:41.513Z,6.88
2022-12-05T17:13:13.703Z,6.22
2022-12-05T17:14:47.157Z,6.13
2022-12-05T17:16:20.574Z,5.68
2022-12-05T17:17:52.395Z,7.43
2022-12-05T17:19:24.437Z,5.95
2022-12-05T17:20:56.183Z,6.47
2022-12-05T17:22:28.226Z,5.82
2022-12-05T17:23:59.903Z,6.32
2022-12-05T17:25:33.160Z,7.15
2022-12-05T17:27:09.344Z,8.02
2022-12-05T17:28:41.096Z,9.40
2022-12-05T17:30:13.257Z,11.15
2022-12-05T17:31:45.095Z,10.20
2022-12-05T17:33:18.766Z,8.38
2022-12-05T17:34:50.552Z,7.50
2022-12-05T17:36:22.822Z,6.68
2022-12-05T17:37:54.439Z,7.15
2022-12-05T17:39:28.654Z,6.18
2022-12-05T17:41:03.997Z,6.85
2022-12-05T17:42:40.227Z,6.72
2022-12-05T17:44:13.630Z,8.18
2022-12-05T17:45:47.817Z,7.40
2022-12-05T17:47:19.476Z,7.40
2022-12-05T17:48:51.351Z,8.07
2022-12-05T17:50:25.240Z,6.68
2022-12-05T17:52:20.929Z,8.10
2022-12-05T17:53:50.047Z,7.00
2022-12-05T17:55:23.650Z,7.95
2022-12-05T17:56:55.319Z,6.55
2022-12-05T17:58:28.322Z,7.40
2022-12-05T17:59:59.942Z,7.80
2022-12-05T18:01:31.648Z,7.30
2022-12-05T18:03:03.405Z,7.68
2022-12-05T18:04:35.246Z,7.82
2022-12-05T18:06:07.669Z,7.40
2022-12-05T18:07:39.432Z,7.80
2022-12-05T18:09:11.146Z,7.55
2022-12-05T18:10:42.844Z,8.20
2022-12-05T18:12:14.493Z,8.88
2022-12-05T18:13:47.702Z,13.35
2022-12-05T18:15:19.350Z,22.40
2022-12-05T18:16:51.009Z,17.33
2022-12-05T18:18:22.677Z,21.83
2022-12-05T18:19:55.991Z,18.25
2022-12-05T18:21:27.643Z,15.98
2022-12-05T18:22:59.384Z,14.73
2022-12-05T18:24:33.423Z,14.85
2022-12-05T18:26:05.433Z,12.02
2022-12-05T18:27:37.666Z,12.18
2022-12-05T18:29:10.656Z,8.02
2022-12-05T18:30:44.019Z,8.32
2022-12-05T18:32:18.647Z,9.20
2022-12-05T18:33:50.542Z,8.77
2022-12-05T18:35:40.559Z,8.73
2022-12-05T18:37:12.618Z,8.18
2022-12-05T18:38:49.311Z,12.38
2022-12-05T18:40:21.054Z,8.85
2022-12-05T18:41:52.807Z,11.30
2022-12-05T18:43:24.431Z,13.63
2022-12-05T18:45:00.439Z,16.45
2022-12-05T18:46:32.420Z,16.25
2022-12-05T18:48:23.226Z,12.50
2022-12-05T18:49:56.269Z,9.82
2022-12-05T18:51:28.070Z,9.60
2022-12-05T18:52:59.995Z,10.20
2022-12-05T18:54:31.792Z,10.48
2022-12-05T18:56:21.558Z,9.07
2022-12-05T18:57:54.638Z,11.88
2022-12-05T18:59:26.297Z,12.32
2022-12-05T19:01:08.035Z,10.15
2022-12-05T19:02:39.736Z,11.60
2022-12-05T19:04:13.076Z,10.48
2022-12-05T19:05:44.707Z,11.35
2022-12-05T19:07:16.333Z,11.93
2022-12-05T19:08:48.040Z,13.55
2022-12-05T19:10:19.883Z,12.68
2022-12-05T19:11:52.486Z,15.15
2022-12-05T19:13:24.328Z,12.77
2022-12-05T19:14:56.022Z,14.70
2022-12-05T19:16:29.685Z,17.02
2022-12-05T19:18:01.315Z,12.75
2022-12-05T19:19:33.044Z,15.70
2022-12-05T19:21:04.817Z,14.13
2022-12-05T19:22:36.542Z,12.45
2022-12-05T19:24:08.766Z,13.50
2022-12-05T19:25:40.404Z,13.93
2022-12-05T19:27:12.366Z,12.50
2022-12-05T19:28:44.021Z,13.57
2022-12-05T19:30:15.943Z,13.50
2022-12-05T19:31:49.045Z,14.25
2022-12-05T19:33:20.722Z,13.45
2022-12-05T19:34:52.495Z,15.95
2022-12-05T19:36:25.468Z,15.77
2022-12-05T19:37:57.153Z,15.32
2022-12-05T19:39:30.207Z,17.58
2022-12-05T19:41:02.113Z,19.00
2022-12-05T19:42:33.749Z,19.15
2022-12-05T19:44:05.607Z,16.83
2022-12-05T19:45:38.225Z,15.93
2022-12-05T19:47:11.292Z,17.95
2022-12-05T19:48:46.300Z,21.90
2022-12-05T19:50:17.944Z,26.80
2022-12-05T19:51:49.657Z,18.38
2022-12-05T19:53:21.309Z,18.13
2022-12-05T19:54:52.936Z,18.25
2022-12-05T19:56:25.235Z,17.67
2022-12-05T19:57:56.889Z,16.25
2022-12-05T19:59:28.641Z,16.35
2022-12-05T20:01:07.008Z,14.32
2022-12-05T20:02:40.611Z,14.20
2022-12-05T20:04:15.408Z,16.05
2022-12-05T20:05:56.104Z,13.80
2022-12-05T20:07:27.734Z,15.40
2022-12-05T20:08:59.410Z,16.58
2022-12-05T20:10:31.174Z,14.60
2022-12-05T20:12:04.239Z,15.13
2022-12-05T20:13:51.847Z,15.98
2022-12-05T20:15:23.776Z,19.58
2022-12-05T20:16:55.749Z,21.42
2022-12-05T20:18:28.809Z,21.48
2022-12-05T20:20:00.683Z,18.67
2022-12-05T20:21:33.754Z,16.05
2022-12-05T20:23:05.787Z,16.95
2022-12-05T20:24:37.534Z,17.40
2022-12-05T20:26:09.988Z,16.35
2022-12-05T20:27:41.635Z,16.23
2022-12-05T20:29:13.332Z,14.52
2022-12-05T20:30:45.561Z,15.10
2022-12-05T20:32:17.376Z,14.68
2022-12-05T20:33:50.461Z,14.82
2022-12-05T20:35:24.200Z,17.20
2022-12-05T20:36:56.076Z,13.57
2022-12-05T20:38:27.715Z,17.08
2022-12-05T20:39:59.554Z,13.10